Home   Weather   United Kingdom   York   Past weeks
Flag for United Kingdom

Past Weather in York, England, United Kingdom — Yesterday and Last 2 Weeks

Currently: 36 °F. Chilly. (Weather station: Topcliffe Royal Air Force Base, United Kingdom). See more current weather

Past Weather in York — Graph

°F

York Temperature Yesterday

Maximum temperature yesterday: 50 °F (at 1:50 pm)
Minimum temperature yesterday: 37 °F (at 4:50 am)
Average temperature yesterday: 43 °F

High & Low Weather Summary for the Past Weeks

 TemperatureHumidityPressure
High66 °F (Apr 6, 1:50 pm)100% (Apr 3, 7:50 am)30.30 "Hg (Apr 3, 7:50 am)
Low28 °F (Apr 18, 5:20 am)47% (Apr 16, 3:20 pm)29.30 "Hg (Apr 6, 11:20 am)
Average50 °F78%29.78 "Hg
* Reported Apr 3 7:50 am — Apr 18 7:50 am, York. Weather by CustomWeather, © 2024

Note: Actual official high and low records may vary slightly from our data, if they occured in-between our weather recording intervals... More about our weather records

York Weather History for the Previous 24 Hours

Scroll right to see more
 ConditionsComfort  
Time TempWeatherWind HumidityBarometerVisibility
7:50 am
Thu, Apr 18
34 °FChilly.3 mph100%30.18 "HgN/A
7:20 am30 °FPassing clouds.No wind100%30.18 "Hg5 mi
6:50 am30 °FIce fog.2 mph100%30.18 "Hg1 mi
6:20 am30 °FIce fog.No wind93%30.18 "HgN/A
5:50 am28 °FIce fog.No wind100%30.18 "HgN/A
5:20 am28 °FIce fog.2 mph93%30.18 "Hg6 mi
4:50 am30 °FClear.3 mph100%30.18 "Hg5 mi
4:20 am34 °FClear.3 mph93%30.18 "HgN/A
3:50 am32 °FClear.2 mph93%30.18 "HgN/A
3:20 am32 °FChilly.2 mph93%30.18 "HgN/A
2:50 am36 °FChilly.6 mph100%30.18 "HgN/A
2:20 am34 °FFog.3 mph100%30.18 "HgN/A
1:50 am32 °FChilly.2 mph100%30.18 "HgN/A
1:20 am32 °FChilly.3 mph100%30.15 "HgN/A
12:50 am34 °FPassing clouds.1 mph87%30.15 "HgN/A
12:20 am34 °FChilly.5 mph93%30.15 "HgN/A
11:50 pm
Wed, Apr 17
37 °FChilly.8 mph93%30.15 "HgN/A
11:20 pm37 °FChilly.7 mph93%30.12 "HgN/A
10:50 pm39 °FChilly.3 mph93%30.12 "HgN/A
10:20 pm39 °FChilly.8 mph93%30.12 "HgN/A
9:50 pm39 °FChilly.6 mph87%30.12 "HgN/A
9:20 pm41 °FPassing clouds.12 mph87%30.09 "HgN/A
8:50 pm43 °FOvercast.10 mph87%30.09 "HgN/A
8:20 pm43 °FPassing clouds.10 mph81%30.07 "HgN/A
7:50 pm43 °FLight rain. Partly sunny.14 mph81%30.07 "HgN/A
7:20 pm43 °FPassing clouds.15 mph81%30.04 "HgN/A
6:50 pm46 °FScattered clouds.20 mph71%30.04 "HgN/A
6:20 pm46 °FPassing clouds.22 mph66%30.01 "HgN/A
5:50 pm46 °FPassing clouds.18 mph71%30.01 "HgN/A
5:20 pm46 °FPassing clouds.18 mph71%29.98 "HgN/A
4:50 pm46 °FScattered clouds.22 mph71%29.98 "HgN/A
4:20 pm46 °FPassing clouds.18 mph76%29.98 "HgN/A
3:20 pm43 °FHeavy rain. Overcast.24 mph76%29.98 "HgN/A
2:50 pm46 °FLight rain. Overcast.18 mph66%29.95 "HgN/A
1:50 pm50 °FScattered clouds.23 mph47%29.95 "HgN/A
12:50 pm46 °FLight rain. Overcast.15 mph62%29.95 "HgN/A
11:50 am48 °FOvercast.16 mph58%29.95 "HgN/A
11:20 am46 °FOvercast.15 mph57%29.95 "HgN/A
10:50 am46 °FOvercast.15 mph57%29.95 "HgN/A
10:20 am46 °FOvercast.17 mph57%29.95 "HgN/A
9:50 am46 °FScattered clouds.18 mph57%29.95 "HgN/A
9:20 am45 °FQuite cool.15 mph61%29.95 "HgN/A
Weather by CustomWeather, © 2024

See weather overview